AirNav   Pilot Hours Calculator
 
 1220 users online  

5VG5 St Vincent's Clay County Heliport
Middleburg, Florida, USA

GOING TO MIDDLEBURG?


FAA INFORMATION EFFECTIVE 05 DECEMBER 2019

Location

FAA Identifier: 5VG5
Lat/Long: 30-06-27.5000N 081-49-58.5000W
30-06.458333N 081-49.975000W
30.1076389,-81.8329167
(estimated)
Elevation: 32 ft. / 10 m
From city: 3 miles NE of MIDDLEBURG, FL
Time zone: UTC -5 (UTC -4 during Daylight Saving Time)
Zip code: 32068

Heliport Operations

Heliport use: Private use. Permission required prior to landing
Activation date: 10/2013
Control tower: no
ARTCC: JACKSONVILLE CENTER
FSS: GAINESVILLE FLIGHT SERVICE STATION
Attendance: CONTINUOUS
Wind indicator: lighted
Segmented circle: no

Heliport Communications

WX AWOS-3 at VQQ (7 nm N): 125.275 (904-778-6934)
WX AWOS-3 at HEG (10 nm N): 119.275 (904-695-0334)
WX AWOS-3 at 42J (19 nm SW): 124.275 (352-473-8273)

Nearby radio navigation aids

VOR radial/distance  VOR name  Freq  Var
VQQr158/(7.0)CECIL VOR117.9003W
CRGr233/21.7CRAIG VORTAC114.5003W
SGJr295/27.6ST AUGUSTINE VOR/DME109.4006W
GNVr047/33.8GATORS VORTAC116.2004W

 
NDB name  Hdg/Dist  Freq  Var  ID
REYNOLDS320/12.433807WRYD .-. -.-- -..
LAKE CITY100/39.020403WLCQ .-.. -.-. --.-

Heliport Services

Runway Information

Helipad H1

Dimensions: 50 x 50 ft. / 15 x 15 m
Surface: concrete
Runway edge lights: PERI
Latitude: 30-06.458333N
Longitude: 081-49.975000W
Elevation: 32.0 ft.
Traffic pattern: leftleft

Heliport Ownership and Management from official FAA records

Ownership: Privately-owned
Owner: ST. VINCENT'S MEDICAL CENTER
1670 ST. VINCENT'S WAY
MIDDLEBURG, FL 32068-8447
Phone 904-602-1000
Manager: GREGG GEORGE
1 SHIRCLIFF WAY
JACKSONVILLE, FL 32204
Phone 904-308-8767

Additional Remarks

FOR CD CTC JACKSONVILLE APCH AT 904-741-0284.

Instrument Procedures

There are no published instrument procedures at 5VG5.

Some nearby airports with instrument procedures:

KVQQ - Cecil Airport (7 nm N)
KHEG - Herlong Recreational Airport (10 nm N)
KNIP - Jacksonville Naval Air Station (Towers Field) (11 nm NE)
42J - Keystone Airpark (19 nm SW)
KCRG - Jacksonville Executive Airport at Craig (21 nm NE)
 
Loc | Ops | Rwys | IFR | FBO | Links
Com | Nav | Svcs | Stats | Notes
Aerial photo
No photo
 
Airport distance calculator
Flying to St Vincent's Clay County Heliport? Find the distance to fly.

From to 5VG5

Sunrise and sunset
Times for 07-Dec-2019
 Local
(UTC-5)
 Zulu
(UTC)
Morning civil twilight06:4511:45
Sunrise07:1112:11
Sunset17:2622:26
Evening civil twilight17:5222:52

Current date and time
Zulu (UTC)  08-Dec-2019 02:35:11
Local (UTC-5)  07-Dec-2019 21:35:11
 
METAR
KVQQ 
7nm N 
080150Z 04006KT 10SM CLR 14/10 A3022
KHEG 
10nm N 
080215Z AUTO 36005KT 9SM OVC110 14/12 A3025 RMK AO2
KNIP 
11nm NE 
080153Z 01007KT 10SM BKN100 16/13 A3023 RMK AO2 SLP233 T01610128
K42J 
19nm SW 
080215Z AUTO 05004KT 10SM SCT016 SCT046 BKN100 14/14 A3022 RMK A01 TSNO
TAF
KVQQ 
7nm N 
080206Z 0802/0824 04006KT P6SM SCT020 BKN100 FM080800 03005KT P6SM FEW015 BKN020 BKN035 FM081500 04007KT P6SM SCT015 BKN030
KNIP 
11nm NE 
0723/0823 03010KT 9999 BKN250 QNH3015INS FM080800 01012KT 9999 BKN100 QNH3013INS TEMPO 0808/0810 BKN050 FM081100 02012KT 9999 OVC050 QNH3016INS T12/0811Z T22/0821Z FN00194
NOTAMs
Click for the latest NOTAMs
NOTAMs are issued by the DoD/FAA and will open in a separate window not controlled by AirNav.

 

 
 

Would you like to see your business listed on this page?

 If your business provides an interesting product or service to pilots, flight crews, aircraft, or users of the St Vincent's Clay County Heliport, you should consider listing it here.  To start the listing process, click on the button below
 
Add a business
 

Other Pages about St Vincent's Clay County Heliport

Update a link
 
Copyright © AirNav, LLC. All rights reserved. Privacy Policy  Contact